Capaldo, Kansas
Current Conditions -  °F | °C
As of 1:35 AM on Wednesday 26 Nov 2014 (Local Time) from KPTS Reporting Station
Overcast Overcast  
Wind Chill: 33°   Ceiling: 12000
Heat Index: 38°   Visibility: 10mi
Dew Point: 26°   Wind: 7mph
Humidity: 61%   Direction: 180°S
Pressure: 29.98"   Gusts: NA
Location:  37.4268°N, 94.7004°W
Report Text: KPTS 260735Z AUTO 18006KT 10SM OVC120 04/M03 A2998 RMK AO2 T00351034
Loading
Personal Weather Stations






























Interactive Weather Map New forecast layout! Learn more

10-Day Weather Forecast

Advertisements
Track Severe Weather on mobile